sensor_id;sensor_type;location;lat;lon;timestamp;P1;durP1;ratioP1;P2;durP2;ratioP2
57535;SDS011;43361;49.790;8.960;2023-03-16T00:04:47;1.60;;;0.70;;
57535;SDS011;43361;49.790;8.960;2023-03-16T00:14:48;1.10;;;0.60;;
57535;SDS011;43361;49.790;8.960;2023-03-16T00:24:49;1.00;;;0.70;;
57535;SDS011;43361;49.790;8.960;2023-03-16T00:34:51;1.25;;;0.70;;
57535;SDS011;43361;49.790;8.960;2023-03-16T00:44:51;1.83;;;0.70;;
57535;SDS011;43361;49.790;8.960;2023-03-16T00:54:57;1.10;;;0.50;;
57535;SDS011;43361;49.790;8.960;2023-03-16T01:04:58;1.50;;;0.75;;
57535;SDS011;43361;49.790;8.960;2023-03-16T01:25:00;1.40;;;0.57;;
57535;SDS011;43361;49.790;8.960;2023-03-16T01:35:00;0.85;;;0.60;;
57535;SDS011;43361;49.790;8.960;2023-03-16T01:45:02;1.15;;;0.65;;
57535;SDS011;43361;49.790;8.960;2023-03-16T01:55:05;1.67;;;0.95;;
57535;SDS011;43361;49.790;8.960;2023-03-16T02:05:09;1.30;;;0.82;;
57535;SDS011;43361;49.790;8.960;2023-03-16T02:15:12;1.10;;;0.80;;
57535;SDS011;43361;49.790;8.960;2023-03-16T02:25:15;1.27;;;0.70;;
57535;SDS011;43361;49.790;8.960;2023-03-16T02:35:17;0.90;;;0.60;;
57535;SDS011;43361;49.790;8.960;2023-03-16T02:45:18;1.30;;;0.80;;
57535;SDS011;43361;49.790;8.960;2023-03-16T02:55:20;1.20;;;0.77;;
57535;SDS011;43361;49.790;8.960;2023-03-16T03:05:20;1.98;;;0.80;;
57535;SDS011;43361;49.790;8.960;2023-03-16T03:15:22;1.20;;;0.88;;
57535;SDS011;43361;49.790;8.960;2023-03-16T03:25:23;1.27;;;0.77;;
57535;SDS011;43361;49.790;8.960;2023-03-16T03:45:25;1.30;;;0.70;;
57535;SDS011;43361;49.790;8.960;2023-03-16T03:55:25;1.60;;;1.00;;
57535;SDS011;43361;49.790;8.960;2023-03-16T04:15:28;1.27;;;0.75;;
57535;SDS011;43361;49.790;8.960;2023-03-16T04:25:29;1.15;;;0.80;;
57535;SDS011;43361;49.790;8.960;2023-03-16T04:35:31;1.50;;;0.80;;
57535;SDS011;43361;49.790;8.960;2023-03-16T04:45:32;1.45;;;0.65;;
57535;SDS011;43361;49.790;8.960;2023-03-16T04:55:33;0.77;;;0.50;;
57535;SDS011;43361;49.790;8.960;2023-03-16T05:05:34;1.20;;;0.80;;
57535;SDS011;43361;49.790;8.960;2023-03-16T05:15:36;1.15;;;0.65;;
57535;SDS011;43361;49.790;8.960;2023-03-16T05:25:36;1.20;;;0.80;;
57535;SDS011;43361;49.790;8.960;2023-03-16T05:35:39;1.10;;;0.68;;
57535;SDS011;43361;49.790;8.960;2023-03-16T05:45:40;1.05;;;0.55;;
57535;SDS011;43361;49.790;8.960;2023-03-16T06:05:42;1.60;;;1.07;;
57535;SDS011;43361;49.790;8.960;2023-03-16T06:15:42;2.53;;;1.35;;
57535;SDS011;43361;49.790;8.960;2023-03-16T06:25:45;6.70;;;1.90;;
57535;SDS011;43361;49.790;8.960;2023-03-16T06:35:45;7.60;;;2.17;;
57535;SDS011;43361;49.790;8.960;2023-03-16T06:45:48;8.95;;;2.55;;
57535;SDS011;43361;49.790;8.960;2023-03-16T06:55:49;7.40;;;2.45;;
57535;SDS011;43361;49.790;8.960;2023-03-16T07:05:50;6.65;;;2.33;;
57535;SDS011;43361;49.790;8.960;2023-03-16T07:15:51;6.18;;;2.13;;
57535;SDS011;43361;49.790;8.960;2023-03-16T07:25:53;13.73;;;2.60;;
57535;SDS011;43361;49.790;8.960;2023-03-16T07:35:53;8.40;;;2.40;;
57535;SDS011;43361;49.790;8.960;2023-03-16T07:55:55;8.47;;;2.80;;
57535;SDS011;43361;49.790;8.960;2023-03-16T08:05:55;8.38;;;2.85;;
57535;SDS011;43361;49.790;8.960;2023-03-16T08:26:02;6.72;;;2.63;;
57535;SDS011;43361;49.790;8.960;2023-03-16T08:36:08;6.93;;;2.85;;
57535;SDS011;43361;49.790;8.960;2023-03-16T08:46:10;5.57;;;2.30;;
57535;SDS011;43361;49.790;8.960;2023-03-16T08:56:12;7.13;;;3.00;;
57535;SDS011;43361;49.790;8.960;2023-03-16T09:06:15;7.28;;;2.35;;
57535;SDS011;43361;49.790;8.960;2023-03-16T09:16:16;5.97;;;2.60;;
57535;SDS011;43361;49.790;8.960;2023-03-16T09:36:18;6.57;;;2.63;;
57535;SDS011;43361;49.790;8.960;2023-03-16T09:46:23;5.32;;;2.38;;
57535;SDS011;43361;49.790;8.960;2023-03-16T09:56:28;6.03;;;2.00;;
57535;SDS011;43361;49.790;8.960;2023-03-16T10:06:29;5.43;;;2.17;;
57535;SDS011;43361;49.790;8.960;2023-03-16T10:16:33;5.55;;;2.35;;
57535;SDS011;43361;49.790;8.960;2023-03-16T10:26:35;5.80;;;2.33;;
57535;SDS011;43361;49.790;8.960;2023-03-16T10:36:40;3.60;;;1.90;;
57535;SDS011;43361;49.790;8.960;2023-03-16T10:46:43;6.40;;;2.28;;
57535;SDS011;43361;49.790;8.960;2023-03-16T10:56:48;4.80;;;2.20;;
57535;SDS011;43361;49.790;8.960;2023-03-16T11:06:53;6.70;;;2.08;;
57535;SDS011;43361;49.790;8.960;2023-03-16T11:16:58;5.57;;;2.13;;
57535;SDS011;43361;49.790;8.960;2023-03-16T11:26:59;5.07;;;2.10;;
57535;SDS011;43361;49.790;8.960;2023-03-16T11:37:08;5.63;;;2.17;;
57535;SDS011;43361;49.790;8.960;2023-03-16T11:47:23;4.13;;;2.20;;
57535;SDS011;43361;49.790;8.960;2023-03-16T11:57:30;3.95;;;2.08;;
57535;SDS011;43361;49.790;8.960;2023-03-16T12:07:36;5.00;;;2.25;;
57535;SDS011;43361;49.790;8.960;2023-03-16T12:17:40;7.57;;;2.50;;
57535;SDS011;43361;49.790;8.960;2023-03-16T12:27:41;8.38;;;2.22;;
57535;SDS011;43361;49.790;8.960;2023-03-16T12:37:45;4.60;;;2.25;;
57535;SDS011;43361;49.790;8.960;2023-03-16T12:47:51;4.40;;;2.13;;
57535;SDS011;43361;49.790;8.960;2023-03-16T12:57:59;6.65;;;2.42;;
57535;SDS011;43361;49.790;8.960;2023-03-16T13:08:04;6.72;;;2.40;;
57535;SDS011;43361;49.790;8.960;2023-03-16T13:18:20;7.40;;;2.03;;
57535;SDS011;43361;49.790;8.960;2023-03-16T13:28:21;6.07;;;2.22;;
57535;SDS011;43361;49.790;8.960;2023-03-16T13:38:28;8.48;;;2.47;;
57535;SDS011;43361;49.790;8.960;2023-03-16T13:48:29;7.47;;;2.60;;
57535;SDS011;43361;49.790;8.960;2023-03-16T13:58:37;11.27;;;2.53;;
57535;SDS011;43361;49.790;8.960;2023-03-16T14:08:39;5.80;;;2.47;;
57535;SDS011;43361;49.790;8.960;2023-03-16T14:18:43;6.63;;;2.20;;
57535;SDS011;43361;49.790;8.960;2023-03-16T14:28:52;7.97;;;2.42;;
57535;SDS011;43361;49.790;8.960;2023-03-16T14:38:54;8.40;;;2.40;;
57535;SDS011;43361;49.790;8.960;2023-03-16T14:48:58;6.05;;;2.25;;
57535;SDS011;43361;49.790;8.960;2023-03-16T14:59:00;8.05;;;2.78;;
57535;SDS011;43361;49.790;8.960;2023-03-16T15:09:01;11.60;;;2.72;;
57535;SDS011;43361;49.790;8.960;2023-03-16T15:19:03;10.47;;;2.73;;
57535;SDS011;43361;49.790;8.960;2023-03-16T15:29:05;14.02;;;2.42;;
57535;SDS011;43361;49.790;8.960;2023-03-16T15:39:08;9.93;;;2.40;;
57535;SDS011;43361;49.790;8.960;2023-03-16T15:49:11;22.73;;;3.28;;
57535;SDS011;43361;49.790;8.960;2023-03-16T15:59:13;9.57;;;2.53;;
57535;SDS011;43361;49.790;8.960;2023-03-16T16:09:16;15.27;;;2.38;;
57535;SDS011;43361;49.790;8.960;2023-03-16T16:19:18;15.18;;;2.53;;
57535;SDS011;43361;49.790;8.960;2023-03-16T16:29:19;15.35;;;3.22;;
57535;SDS011;43361;49.790;8.960;2023-03-16T16:39:22;13.32;;;2.38;;
57535;SDS011;43361;49.790;8.960;2023-03-16T16:49:23;17.73;;;2.70;;
57535;SDS011;43361;49.790;8.960;2023-03-16T16:59:28;11.43;;;2.40;;
57535;SDS011;43361;49.790;8.960;2023-03-16T17:09:29;6.78;;;2.38;;
57535;SDS011;43361;49.790;8.960;2023-03-16T17:19:31;7.22;;;2.20;;
57535;SDS011;43361;49.790;8.960;2023-03-16T17:29:32;9.20;;;2.60;;
57535;SDS011;43361;49.790;8.960;2023-03-16T17:39:34;10.90;;;2.67;;
57535;SDS011;43361;49.790;8.960;2023-03-16T17:49:36;16.88;;;2.40;;
57535;SDS011;43361;49.790;8.960;2023-03-16T17:59:37;10.73;;;1.92;;
57535;SDS011;43361;49.790;8.960;2023-03-16T18:09:38;15.13;;;3.25;;
57535;SDS011;43361;49.790;8.960;2023-03-16T18:19:40;13.97;;;2.93;;
57535;SDS011;43361;49.790;8.960;2023-03-16T18:29:41;12.20;;;2.25;;
57535;SDS011;43361;49.790;8.960;2023-03-16T18:39:43;10.82;;;2.80;;
57535;SDS011;43361;49.790;8.960;2023-03-16T18:49:44;8.45;;;2.22;;
57535;SDS011;43361;49.790;8.960;2023-03-16T18:59:49;7.40;;;2.72;;
57535;SDS011;43361;49.790;8.960;2023-03-16T19:09:50;7.05;;;1.75;;
57535;SDS011;43361;49.790;8.960;2023-03-16T19:19:52;5.70;;;2.23;;
57535;SDS011;43361;49.790;8.960;2023-03-16T19:29:52;7.45;;;2.08;;
57535;SDS011;43361;49.790;8.960;2023-03-16T19:39:54;7.67;;;2.33;;
57535;SDS011;43361;49.790;8.960;2023-03-16T19:49:55;6.97;;;2.13;;
57535;SDS011;43361;49.790;8.960;2023-03-16T19:59:57;6.78;;;2.30;;
57535;SDS011;43361;49.790;8.960;2023-03-16T20:09:57;12.10;;;2.08;;
57535;SDS011;43361;49.790;8.960;2023-03-16T20:19:59;5.10;;;2.00;;
57535;SDS011;43361;49.790;8.960;2023-03-16T20:29:59;5.63;;;1.95;;
57535;SDS011;43361;49.790;8.960;2023-03-16T20:40:01;5.47;;;1.73;;
57535;SDS011;43361;49.790;8.960;2023-03-16T20:50:04;10.90;;;2.35;;
57535;SDS011;43361;49.790;8.960;2023-03-16T21:00:09;4.38;;;1.73;;
57535;SDS011;43361;49.790;8.960;2023-03-16T21:10:17;3.45;;;1.60;;
57535;SDS011;43361;49.790;8.960;2023-03-16T21:20:20;4.65;;;1.90;;
57535;SDS011;43361;49.790;8.960;2023-03-16T21:30:22;3.13;;;1.70;;
57535;SDS011;43361;49.790;8.960;2023-03-16T21:40:25;5.97;;;2.03;;
57535;SDS011;43361;49.790;8.960;2023-03-16T21:50:27;4.72;;;1.63;;
57535;SDS011;43361;49.790;8.960;2023-03-16T22:00:29;3.65;;;1.55;;
57535;SDS011;43361;49.790;8.960;2023-03-16T22:10:31;5.10;;;1.48;;
57535;SDS011;43361;49.790;8.960;2023-03-16T22:20:33;3.20;;;1.50;;
57535;SDS011;43361;49.790;8.960;2023-03-16T22:30:33;5.03;;;1.50;;
57535;SDS011;43361;49.790;8.960;2023-03-16T22:40:36;4.15;;;1.38;;
57535;SDS011;43361;49.790;8.960;2023-03-16T22:50:38;3.33;;;1.42;;
57535;SDS011;43361;49.790;8.960;2023-03-16T23:00:39;5.70;;;1.50;;
57535;SDS011;43361;49.790;8.960;2023-03-16T23:10:40;6.22;;;1.70;;
57535;SDS011;43361;49.790;8.960;2023-03-16T23:20:42;2.70;;;1.38;;
57535;SDS011;43361;49.790;8.960;2023-03-16T23:30:43;5.80;;;1.70;;
57535;SDS011;43361;49.790;8.960;2023-03-16T23:50:46;3.93;;;1.43;;
